sensor_id;sensor_type;location;lat;lon;timestamp;pressure;altitude;pressure_sealevel;temperature;humidity
35910;BME280;22004;49.120;-0.200;2023-02-11T00:00:22;103662.97;;;8.14;62.74
35910;BME280;22004;49.120;-0.200;2023-02-11T00:02:47;103658.09;;;8.07;63.06
35910;BME280;22004;49.120;-0.200;2023-02-11T00:05:13;103652.75;;;8.07;63.10
35910;BME280;22004;49.120;-0.200;2023-02-11T00:07:38;103654.84;;;8.01;63.12
35910;BME280;22004;49.120;-0.200;2023-02-11T00:10:04;103661.13;;;8.00;62.99
35910;BME280;22004;49.120;-0.200;2023-02-11T00:12:34;103653.97;;;8.01;62.72
35910;BME280;22004;49.120;-0.200;2023-02-11T00:14:59;103652.81;;;7.91;63.47
35910;BME280;22004;49.120;-0.200;2023-02-11T00:17:24;103661.50;;;7.94;63.09
35910;BME280;22004;49.120;-0.200;2023-02-11T00:19:51;103660.63;;;7.94;62.64
35910;BME280;22004;49.120;-0.200;2023-02-11T00:22:17;103657.97;;;7.94;62.81
35910;BME280;22004;49.120;-0.200;2023-02-11T00:24:42;103649.19;;;7.92;63.03
35910;BME280;22004;49.120;-0.200;2023-02-11T00:27:08;103658.22;;;7.89;62.93
35910;BME280;22004;49.120;-0.200;2023-02-11T00:29:33;103648.75;;;7.84;63.03
35910;BME280;22004;49.120;-0.200;2023-02-11T00:31:59;103644.56;;;7.94;62.59
35910;BME280;22004;49.120;-0.200;2023-02-11T00:34:32;103642.59;;;7.97;62.46
35910;BME280;22004;49.120;-0.200;2023-02-11T00:36:58;103647.38;;;8.07;62.57
35910;BME280;22004;49.120;-0.200;2023-02-11T00:39:23;103640.38;;;8.04;62.79
35910;BME280;22004;49.120;-0.200;2023-02-11T00:41:49;103643.03;;;7.90;63.13
35910;BME280;22004;49.120;-0.200;2023-02-11T00:44:14;103638.28;;;7.95;62.84
35910;BME280;22004;49.120;-0.200;2023-02-11T00:46:40;103637.50;;;7.93;62.65
35910;BME280;22004;49.120;-0.200;2023-02-11T00:49:05;103643.25;;;7.87;62.49
35910;BME280;22004;49.120;-0.200;2023-02-11T00:51:31;103648.59;;;7.87;62.69
35910;BME280;22004;49.120;-0.200;2023-02-11T00:53:56;103644.47;;;7.81;62.93
35910;BME280;22004;49.120;-0.200;2023-02-11T00:56:21;103639.03;;;7.83;62.65
35910;BME280;22004;49.120;-0.200;2023-02-11T00:58:47;103640.78;;;7.98;62.29
35910;BME280;22004;49.120;-0.200;2023-02-11T01:01:13;103636.75;;;7.91;62.40
35910;BME280;22004;49.120;-0.200;2023-02-11T01:03:38;103644.78;;;7.91;62.39
35910;BME280;22004;49.120;-0.200;2023-02-11T01:06:06;103641.28;;;7.74;62.53
35910;BME280;22004;49.120;-0.200;2023-02-11T01:08:32;103646.25;;;7.66;62.59
35910;BME280;22004;49.120;-0.200;2023-02-11T01:11:00;103646.63;;;7.74;62.49
35910;BME280;22004;49.120;-0.200;2023-02-11T01:13:27;103631.53;;;7.73;62.51
35910;BME280;22004;49.120;-0.200;2023-02-11T01:15:53;103632.97;;;7.79;62.22
35910;BME280;22004;49.120;-0.200;2023-02-11T01:18:19;103634.22;;;7.73;62.47
35910;BME280;22004;49.120;-0.200;2023-02-11T01:20:44;103630.00;;;7.69;62.19
35910;BME280;22004;49.120;-0.200;2023-02-11T01:23:10;103627.59;;;7.65;62.47
35910;BME280;22004;49.120;-0.200;2023-02-11T01:25:35;103628.00;;;7.73;62.29
35910;BME280;22004;49.120;-0.200;2023-02-11T01:28:01;103631.72;;;7.70;61.72
35910;BME280;22004;49.120;-0.200;2023-02-11T01:30:26;103625.91;;;7.78;62.28
35910;BME280;22004;49.120;-0.200;2023-02-11T01:32:51;103618.66;;;7.66;62.29
35910;BME280;22004;49.120;-0.200;2023-02-11T01:35:17;103616.91;;;7.65;62.21
35910;BME280;22004;49.120;-0.200;2023-02-11T01:37:42;103610.25;;;7.72;62.17
35910;BME280;22004;49.120;-0.200;2023-02-11T01:40:13;103611.78;;;7.76;61.90
35910;BME280;22004;49.120;-0.200;2023-02-11T01:42:39;103610.06;;;7.89;61.67
35910;BME280;22004;49.120;-0.200;2023-02-11T01:48:09;103597.63;;;7.74;61.90
35910;BME280;22004;49.120;-0.200;2023-02-11T01:50:38;103597.75;;;7.72;61.69
35910;BME280;22004;49.120;-0.200;2023-02-11T01:53:05;103591.75;;;7.53;61.68
35910;BME280;22004;49.120;-0.200;2023-02-11T01:56:04;103602.28;;;7.70;61.91
35910;BME280;22004;49.120;-0.200;2023-02-11T01:58:50;103601.09;;;7.76;61.70
35910;BME280;22004;49.120;-0.200;2023-02-11T02:01:21;103596.94;;;7.70;61.47
35910;BME280;22004;49.120;-0.200;2023-02-11T02:03:51;103600.00;;;7.64;62.06
35910;BME280;22004;49.120;-0.200;2023-02-11T02:06:24;103600.38;;;7.58;62.15
35910;BME280;22004;49.120;-0.200;2023-02-11T02:09:05;103594.69;;;7.78;61.79
35910;BME280;22004;49.120;-0.200;2023-02-11T02:11:32;103595.59;;;7.63;61.76
35910;BME280;22004;49.120;-0.200;2023-02-11T02:13:58;103589.84;;;7.55;62.07
35910;BME280;22004;49.120;-0.200;2023-02-11T02:16:29;103597.84;;;7.71;61.60
35910;BME280;22004;49.120;-0.200;2023-02-11T02:27:32;103596.19;;;7.68;61.64
35910;BME280;22004;49.120;-0.200;2023-02-11T02:33:19;103595.66;;;7.77;61.61
35910;BME280;22004;49.120;-0.200;2023-02-11T02:38:39;103600.69;;;7.68;61.69
35910;BME280;22004;49.120;-0.200;2023-02-11T02:41:13;103598.22;;;7.79;61.07
35910;BME280;22004;49.120;-0.200;2023-02-11T02:43:43;103601.13;;;7.60;61.51
35910;BME280;22004;49.120;-0.200;2023-02-11T02:48:46;103590.47;;;7.44;61.82
35910;BME280;22004;49.120;-0.200;2023-02-11T02:56:47;103586.41;;;7.53;61.57
35910;BME280;22004;49.120;-0.200;2023-02-11T03:02:12;103590.16;;;7.65;61.21
35910;BME280;22004;49.120;-0.200;2023-02-11T03:04:46;103581.66;;;7.58;61.77
35910;BME280;22004;49.120;-0.200;2023-02-11T03:09:50;103577.44;;;7.54;60.81
35910;BME280;22004;49.120;-0.200;2023-02-11T03:12:16;103580.50;;;6.70;61.94
35910;BME280;22004;49.120;-0.200;2023-02-11T03:14:43;103578.66;;;7.48;61.43
35910;BME280;22004;49.120;-0.200;2023-02-11T03:17:09;103577.69;;;7.80;61.02
35910;BME280;22004;49.120;-0.200;2023-02-11T03:19:40;103570.78;;;7.61;61.53
35910;BME280;22004;49.120;-0.200;2023-02-11T03:22:11;103561.13;;;7.59;61.16
35910;BME280;22004;49.120;-0.200;2023-02-11T03:24:40;103554.91;;;7.58;61.72
35910;BME280;22004;49.120;-0.200;2023-02-11T03:27:12;103552.56;;;7.68;61.48
35910;BME280;22004;49.120;-0.200;2023-02-11T03:29:44;103549.53;;;7.44;61.74
35910;BME280;22004;49.120;-0.200;2023-02-11T03:32:28;103554.66;;;7.63;61.43
35910;BME280;22004;49.120;-0.200;2023-02-11T03:35:08;103556.44;;;7.48;61.82
35910;BME280;22004;49.120;-0.200;2023-02-11T03:37:59;103556.44;;;7.48;61.77
35910;BME280;22004;49.120;-0.200;2023-02-11T03:40:38;103556.72;;;7.58;61.26
35910;BME280;22004;49.120;-0.200;2023-02-11T03:43:08;103553.09;;;7.59;61.69
35910;BME280;22004;49.120;-0.200;2023-02-11T03:45:37;103542.84;;;7.37;61.63
35910;BME280;22004;49.120;-0.200;2023-02-11T03:48:24;103542.38;;;7.44;61.43
35910;BME280;22004;49.120;-0.200;2023-02-11T03:50:52;103541.38;;;7.61;61.21
35910;BME280;22004;49.120;-0.200;2023-02-11T03:53:21;103544.19;;;7.44;61.73
35910;BME280;22004;49.120;-0.200;2023-02-11T03:55:48;103541.69;;;7.41;61.80
35910;BME280;22004;49.120;-0.200;2023-02-11T03:58:14;103545.53;;;7.37;61.82
35910;BME280;22004;49.120;-0.200;2023-02-11T04:00:41;103529.59;;;7.49;61.56
35910;BME280;22004;49.120;-0.200;2023-02-11T04:03:07;103536.38;;;7.55;61.33
35910;BME280;22004;49.120;-0.200;2023-02-11T04:05:33;103527.59;;;7.53;61.36
35910;BME280;22004;49.120;-0.200;2023-02-11T04:07:58;103527.47;;;7.40;61.56
35910;BME280;22004;49.120;-0.200;2023-02-11T04:10:24;103531.72;;;7.59;61.54
35910;BME280;22004;49.120;-0.200;2023-02-11T04:12:49;103538.03;;;7.58;61.71
35910;BME280;22004;49.120;-0.200;2023-02-11T04:15:15;103541.50;;;7.44;61.72
35910;BME280;22004;49.120;-0.200;2023-02-11T04:17:41;103545.34;;;7.54;61.32
35910;BME280;22004;49.120;-0.200;2023-02-11T04:20:07;103548.63;;;7.59;61.36
35910;BME280;22004;49.120;-0.200;2023-02-11T04:22:33;103548.50;;;7.61;61.59
35910;BME280;22004;49.120;-0.200;2023-02-11T04:24:58;103548.72;;;7.58;61.33
35910;BME280;22004;49.120;-0.200;2023-02-11T04:27:23;103547.66;;;7.60;61.88
35910;BME280;22004;49.120;-0.200;2023-02-11T04:29:49;103540.31;;;7.64;61.32
35910;BME280;22004;49.120;-0.200;2023-02-11T04:32:15;103539.28;;;7.66;61.40
35910;BME280;22004;49.120;-0.200;2023-02-11T04:34:40;103541.97;;;7.66;61.48
35910;BME280;22004;49.120;-0.200;2023-02-11T04:37:06;103540.50;;;7.75;61.14
35910;BME280;22004;49.120;-0.200;2023-02-11T04:39:31;103545.72;;;7.48;61.83
35910;BME280;22004;49.120;-0.200;2023-02-11T04:41:56;103554.72;;;7.47;61.78
35910;BME280;22004;49.120;-0.200;2023-02-11T04:44:22;103554.72;;;7.47;61.61
35910;BME280;22004;49.120;-0.200;2023-02-11T04:46:47;103563.53;;;7.63;61.18
35910;BME280;22004;49.120;-0.200;2023-02-11T04:49:14;103559.72;;;7.67;61.21
35910;BME280;22004;49.120;-0.200;2023-02-11T04:51:40;103563.91;;;7.57;61.17
35910;BME280;22004;49.120;-0.200;2023-02-11T04:54:06;103555.69;;;7.60;61.27
35910;BME280;22004;49.120;-0.200;2023-02-11T04:56:31;103548.16;;;7.67;61.32
35910;BME280;22004;49.120;-0.200;2023-02-11T04:58:57;103553.28;;;7.56;61.38
35910;BME280;22004;49.120;-0.200;2023-02-11T05:01:22;103555.22;;;7.68;61.01
35910;BME280;22004;49.120;-0.200;2023-02-11T05:03:48;103553.38;;;7.54;61.12
35910;BME280;22004;49.120;-0.200;2023-02-11T05:06:13;103553.88;;;7.75;61.04
35910;BME280;22004;49.120;-0.200;2023-02-11T05:08:39;103549.88;;;7.68;61.22
35910;BME280;22004;49.120;-0.200;2023-02-11T05:11:05;103547.50;;;7.77;60.71
35910;BME280;22004;49.120;-0.200;2023-02-11T05:13:31;103535.16;;;7.75;60.82
35910;BME280;22004;49.120;-0.200;2023-02-11T05:15:57;103538.13;;;7.70;61.11
35910;BME280;22004;49.120;-0.200;2023-02-11T05:18:22;103540.91;;;7.83;60.60
35910;BME280;22004;49.120;-0.200;2023-02-11T05:20:48;103546.06;;;7.72;61.14
35910;BME280;22004;49.120;-0.200;2023-02-11T05:23:13;103557.41;;;7.75;60.95
35910;BME280;22004;49.120;-0.200;2023-02-11T05:25:39;103553.06;;;7.89;60.68
35910;BME280;22004;49.120;-0.200;2023-02-11T05:28:05;103555.44;;;7.93;60.48
35910;BME280;22004;49.120;-0.200;2023-02-11T05:30:30;103555.94;;;7.86;61.03
35910;BME280;22004;49.120;-0.200;2023-02-11T05:32:56;103552.94;;;7.90;60.80
35910;BME280;22004;49.120;-0.200;2023-02-11T05:35:22;103554.00;;;7.88;60.97
35910;BME280;22004;49.120;-0.200;2023-02-11T05:37:47;103547.22;;;7.82;61.04
35910;BME280;22004;49.120;-0.200;2023-02-11T05:40:13;103546.84;;;7.88;60.73
35910;BME280;22004;49.120;-0.200;2023-02-11T05:42:38;103562.44;;;7.96;60.44
35910;BME280;22004;49.120;-0.200;2023-02-11T05:45:04;103561.66;;;7.94;60.64
35910;BME280;22004;49.120;-0.200;2023-02-11T05:47:30;103559.66;;;7.97;60.58
35910;BME280;22004;49.120;-0.200;2023-02-11T05:49:55;103560.50;;;7.98;60.79
35910;BME280;22004;49.120;-0.200;2023-02-11T05:52:22;103570.06;;;8.02;60.13
35910;BME280;22004;49.120;-0.200;2023-02-11T05:54:47;103571.59;;;7.92;60.42
35910;BME280;22004;49.120;-0.200;2023-02-11T05:57:13;103575.31;;;7.89;60.90
35910;BME280;22004;49.120;-0.200;2023-02-11T05:59:38;103583.53;;;8.00;60.60
35910;BME280;22004;49.120;-0.200;2023-02-11T06:02:04;103582.31;;;8.06;60.53
35910;BME280;22004;49.120;-0.200;2023-02-11T06:04:29;103580.28;;;8.10;60.44
35910;BME280;22004;49.120;-0.200;2023-02-11T06:06:55;103592.34;;;8.17;60.61
35910;BME280;22004;49.120;-0.200;2023-02-11T06:09:20;103591.88;;;7.96;60.69
35910;BME280;22004;49.120;-0.200;2023-02-11T06:11:46;103592.78;;;7.95;60.89
35910;BME280;22004;49.120;-0.200;2023-02-11T06:14:11;103589.09;;;7.97;60.72
35910;BME280;22004;49.120;-0.200;2023-02-11T06:16:37;103575.31;;;8.03;60.94
35910;BME280;22004;49.120;-0.200;2023-02-11T06:19:02;103581.47;;;8.06;61.21
35910;BME280;22004;49.120;-0.200;2023-02-11T06:21:28;103575.78;;;8.10;60.96
35910;BME280;22004;49.120;-0.200;2023-02-11T06:23:53;103568.44;;;7.99;60.53
35910;BME280;22004;49.120;-0.200;2023-02-11T06:26:21;103575.50;;;8.00;60.63
35910;BME280;22004;49.120;-0.200;2023-02-11T06:28:47;103570.75;;;8.06;61.01
35910;BME280;22004;49.120;-0.200;2023-02-11T06:31:13;103569.13;;;8.03;60.96
35910;BME280;22004;49.120;-0.200;2023-02-11T06:33:38;103574.34;;;8.04;60.83
35910;BME280;22004;49.120;-0.200;2023-02-11T06:36:13;103571.78;;;8.03;61.13
35910;BME280;22004;49.120;-0.200;2023-02-11T06:38:39;103573.59;;;8.02;61.23
35910;BME280;22004;49.120;-0.200;2023-02-11T06:41:04;103576.19;;;8.04;61.45
35910;BME280;22004;49.120;-0.200;2023-02-11T06:43:30;103580.84;;;8.15;60.91
35910;BME280;22004;49.120;-0.200;2023-02-11T06:45:55;103575.63;;;8.13;60.87
35910;BME280;22004;49.120;-0.200;2023-02-11T06:48:22;103585.91;;;8.05;60.92
35910;BME280;22004;49.120;-0.200;2023-02-11T06:50:47;103573.22;;;8.09;60.33
35910;BME280;22004;49.120;-0.200;2023-02-11T06:53:13;103574.19;;;8.08;61.35
35910;BME280;22004;49.120;-0.200;2023-02-11T06:55:38;103578.28;;;8.13;61.14
35910;BME280;22004;49.120;-0.200;2023-02-11T06:58:03;103580.84;;;8.15;61.23
35910;BME280;22004;49.120;-0.200;2023-02-11T07:00:29;103586.31;;;8.13;61.18
35910;BME280;22004;49.120;-0.200;2023-02-11T07:02:54;103587.75;;;8.19;61.32
35910;BME280;22004;49.120;-0.200;2023-02-11T07:05:20;103582.50;;;8.17;61.11
35910;BME280;22004;49.120;-0.200;2023-02-11T07:07:45;103582.25;;;8.36;60.62
35910;BME280;22004;49.120;-0.200;2023-02-11T07:10:11;103581.66;;;8.31;60.64
35910;BME280;22004;49.120;-0.200;2023-02-11T07:12:36;103595.88;;;8.17;61.39
35910;BME280;22004;49.120;-0.200;2023-02-11T07:15:01;103586.78;;;8.34;60.98
35910;BME280;22004;49.120;-0.200;2023-02-11T07:17:27;103578.28;;;8.13;61.08
35910;BME280;22004;49.120;-0.200;2023-02-11T07:19:52;103575.16;;;8.21;61.44
35910;BME280;22004;49.120;-0.200;2023-02-11T07:22:18;103581.06;;;8.26;61.46
35910;BME280;22004;49.120;-0.200;2023-02-11T07:24:43;103587.34;;;8.25;61.39
35910;BME280;22004;49.120;-0.200;2023-02-11T07:27:09;103580.50;;;8.21;61.66
35910;BME280;22004;49.120;-0.200;2023-02-11T07:29:34;103584.22;;;8.33;61.32
35910;BME280;22004;49.120;-0.200;2023-02-11T07:31:59;103594.81;;;8.34;61.19
35910;BME280;22004;49.120;-0.200;2023-02-11T07:34:25;103596.38;;;8.52;60.66
35910;BME280;22004;49.120;-0.200;2023-02-11T07:36:50;103589.56;;;8.33;61.13
35910;BME280;22004;49.120;-0.200;2023-02-11T07:39:16;103595.50;;;8.23;61.72
35910;BME280;22004;49.120;-0.200;2023-02-11T07:41:41;103597.50;;;8.34;61.53
35910;BME280;22004;49.120;-0.200;2023-02-11T07:44:08;103589.31;;;8.37;61.44
35910;BME280;22004;49.120;-0.200;2023-02-11T07:46:35;103598.78;;;8.43;61.26
35910;BME280;22004;49.120;-0.200;2023-02-11T07:49:00;103603.44;;;8.39;61.48
35910;BME280;22004;49.120;-0.200;2023-02-11T07:51:28;103607.38;;;8.48;61.20
35910;BME280;22004;49.120;-0.200;2023-02-11T07:53:55;103606.41;;;8.49;61.06
35910;BME280;22004;49.120;-0.200;2023-02-11T07:56:22;103614.44;;;8.49;61.41
35910;BME280;22004;49.120;-0.200;2023-02-11T07:58:48;103618.53;;;8.40;61.64
35910;BME280;22004;49.120;-0.200;2023-02-11T08:01:16;103621.16;;;8.56;61.11
35910;BME280;22004;49.120;-0.200;2023-02-11T08:03:42;103623.91;;;8.54;61.47
35910;BME280;22004;49.120;-0.200;2023-02-11T08:06:10;103619.78;;;8.49;61.75
35910;BME280;22004;49.120;-0.200;2023-02-11T08:08:35;103611.28;;;8.28;61.50
35910;BME280;22004;49.120;-0.200;2023-02-11T08:11:08;103618.25;;;8.59;61.55
35910;BME280;22004;49.120;-0.200;2023-02-11T08:13:34;103612.59;;;8.64;61.53
35910;BME280;22004;49.120;-0.200;2023-02-11T08:16:00;103615.78;;;8.70;61.63
35910;BME280;22004;49.120;-0.200;2023-02-11T08:18:25;103610.50;;;8.69;61.71
35910;BME280;22004;49.120;-0.200;2023-02-11T08:20:51;103602.28;;;8.72;61.45
35910;BME280;22004;49.120;-0.200;2023-02-11T08:23:16;103618.97;;;8.90;61.03
35910;BME280;22004;49.120;-0.200;2023-02-11T08:25:41;103618.97;;;8.90;61.09
35910;BME280;22004;49.120;-0.200;2023-02-11T08:28:07;103610.19;;;8.88;61.18
35910;BME280;22004;49.120;-0.200;2023-02-11T08:30:33;103609.31;;;8.87;61.38
35910;BME280;22004;49.120;-0.200;2023-02-11T08:32:59;103606.53;;;8.89;61.27
35910;BME280;22004;49.120;-0.200;2023-02-11T08:35:24;103607.69;;;8.85;61.58
35910;BME280;22004;49.120;-0.200;2023-02-11T08:37:50;103607.38;;;8.89;61.45
35910;BME280;22004;49.120;-0.200;2023-02-11T08:40:16;103604.66;;;9.03;61.06
35910;BME280;22004;49.120;-0.200;2023-02-11T08:42:41;103597.19;;;9.09;60.94
35910;BME280;22004;49.120;-0.200;2023-02-11T08:45:07;103600.88;;;8.93;61.49
35910;BME280;22004;49.120;-0.200;2023-02-11T08:47:32;103602.47;;;8.69;62.85
35910;BME280;22004;49.120;-0.200;2023-02-11T08:49:57;103603.25;;;8.98;62.12
35910;BME280;22004;49.120;-0.200;2023-02-11T08:52:23;103601.53;;;8.97;62.11
35910;BME280;22004;49.120;-0.200;2023-02-11T08:54:48;103598.00;;;8.96;62.03
35910;BME280;22004;49.120;-0.200;2023-02-11T08:57:14;103596.19;;;8.97;62.29
35910;BME280;22004;49.120;-0.200;2023-02-11T08:59:40;103603.97;;;8.87;63.06
35910;BME280;22004;49.120;-0.200;2023-02-11T09:02:05;103597.19;;;9.09;61.97
35910;BME280;22004;49.120;-0.200;2023-02-11T09:04:31;103597.91;;;8.98;62.70
35910;BME280;22004;49.120;-0.200;2023-02-11T09:06:56;103594.91;;;9.29;61.14
35910;BME280;22004;49.120;-0.200;2023-02-11T09:09:22;103596.94;;;9.26;61.67
35910;BME280;22004;49.120;-0.200;2023-02-11T09:11:48;103590.00;;;9.09;63.60
35910;BME280;22004;49.120;-0.200;2023-02-11T09:14:21;103595.72;;;9.17;62.88
35910;BME280;22004;49.120;-0.200;2023-02-11T09:16:47;103605.69;;;8.74;64.94
35910;BME280;22004;49.120;-0.200;2023-02-11T09:19:13;103603.28;;;9.25;62.22
35910;BME280;22004;49.120;-0.200;2023-02-11T09:21:39;103599.53;;;9.00;63.35
35910;BME280;22004;49.120;-0.200;2023-02-11T09:24:04;103592.38;;;9.14;62.51
35910;BME280;22004;49.120;-0.200;2023-02-11T09:26:32;103601.66;;;9.22;63.01
35910;BME280;22004;49.120;-0.200;2023-02-11T09:28:59;103597.38;;;9.32;62.64
35910;BME280;22004;49.120;-0.200;2023-02-11T09:31:26;103595.13;;;9.26;63.18
35910;BME280;22004;49.120;-0.200;2023-02-11T09:33:57;103592.81;;;9.07;63.61
35910;BME280;22004;49.120;-0.200;2023-02-11T09:36:25;103595.72;;;9.17;63.19
35910;BME280;22004;49.120;-0.200;2023-02-11T09:38:53;103597.50;;;9.31;62.49
35910;BME280;22004;49.120;-0.200;2023-02-11T09:43:49;103600.19;;;9.44;62.55
35910;BME280;22004;49.120;-0.200;2023-02-11T09:46:16;103604.75;;;9.56;62.19
35910;BME280;22004;49.120;-0.200;2023-02-11T09:48:44;103606.56;;;9.55;62.40
35910;BME280;22004;49.120;-0.200;2023-02-11T09:51:30;103611.94;;;9.28;64.86
35910;BME280;22004;49.120;-0.200;2023-02-11T09:54:03;103606.34;;;9.58;61.70
35910;BME280;22004;49.120;-0.200;2023-02-11T09:56:30;103610.44;;;9.51;62.84
35910;BME280;22004;49.120;-0.200;2023-02-11T09:58:56;103605.19;;;9.63;62.32
35910;BME280;22004;49.120;-0.200;2023-02-11T10:09:59;103598.34;;;9.71;64.53
35910;BME280;22004;49.120;-0.200;2023-02-11T10:12:39;103598.34;;;9.97;63.45
35910;BME280;22004;49.120;-0.200;2023-02-11T10:17:52;103601.16;;;9.95;62.12
35910;BME280;22004;49.120;-0.200;2023-02-11T10:23:24;103596.63;;;9.83;64.32
35910;BME280;22004;49.120;-0.200;2023-02-11T10:25:53;103602.13;;;9.42;68.58
35910;BME280;22004;49.120;-0.200;2023-02-11T10:28:22;103598.75;;;9.78;63.53
35910;BME280;22004;49.120;-0.200;2023-02-11T10:31:10;103607.03;;;9.88;62.31
35910;BME280;22004;49.120;-0.200;2023-02-11T10:33:43;103606.75;;;10.05;61.47
35910;BME280;22004;49.120;-0.200;2023-02-11T10:36:11;103608.13;;;9.85;62.42
35910;BME280;22004;49.120;-0.200;2023-02-11T10:38:37;103604.16;;;10.03;63.64
35910;BME280;22004;49.120;-0.200;2023-02-11T10:41:03;103605.00;;;10.04;63.41
35910;BME280;22004;49.120;-0.200;2023-02-11T10:43:29;103613.41;;;9.47;65.97
35910;BME280;22004;49.120;-0.200;2023-02-11T10:45:58;103612.28;;;9.89;64.55
35910;BME280;22004;49.120;-0.200;2023-02-11T10:48:59;103616.75;;;9.50;73.28
35910;BME280;22004;49.120;-0.200;2023-02-11T10:56:31;103628.38;;;9.10;75.33
35910;BME280;22004;49.120;-0.200;2023-02-11T10:59:04;103628.25;;;9.25;70.94
35910;BME280;22004;49.120;-0.200;2023-02-11T11:01:44;103619.06;;;9.82;64.98
35910;BME280;22004;49.120;-0.200;2023-02-11T11:06:58;103632.25;;;9.32;68.67
35910;BME280;22004;49.120;-0.200;2023-02-11T11:09:45;103626.56;;;9.37;68.33
35910;BME280;22004;49.120;-0.200;2023-02-11T11:17:34;103633.47;;;9.41;72.79
35910;BME280;22004;49.120;-0.200;2023-02-11T11:22:48;103628.00;;;10.21;63.61
35910;BME280;22004;49.120;-0.200;2023-02-11T11:25:25;103631.13;;;9.22;69.13
35910;BME280;22004;49.120;-0.200;2023-02-11T11:27:53;103632.28;;;9.18;71.98
35910;BME280;22004;49.120;-0.200;2023-02-11T11:30:22;103616.59;;;9.92;67.37
35910;BME280;22004;49.120;-0.200;2023-02-11T11:32:50;103616.59;;;9.92;64.34
35910;BME280;22004;49.120;-0.200;2023-02-11T11:35:27;103610.66;;;9.61;66.66
35910;BME280;22004;49.120;-0.200;2023-02-11T11:37:59;103601.66;;;9.62;69.14
35910;BME280;22004;49.120;-0.200;2023-02-11T11:40:28;103601.59;;;9.37;72.51
35910;BME280;22004;49.120;-0.200;2023-02-11T11:43:26;103597.31;;;9.07;73.40
35910;BME280;22004;49.120;-0.200;2023-02-11T11:45:58;103594.69;;;9.72;70.85
35910;BME280;22004;49.120;-0.200;2023-02-11T11:48:30;103600.84;;;10.00;67.16
35910;BME280;22004;49.120;-0.200;2023-02-11T11:50:59;103597.91;;;9.65;70.27
35910;BME280;22004;49.120;-0.200;2023-02-11T11:53:39;103591.78;;;9.63;68.93
35910;BME280;22004;49.120;-0.200;2023-02-11T11:58:34;103586.16;;;9.53;69.34
35910;BME280;22004;49.120;-0.200;2023-02-11T12:10:28;103583.22;;;9.96;66.27
35910;BME280;22004;49.120;-0.200;2023-02-11T12:19:08;103580.16;;;9.49;73.15
35910;BME280;22004;49.120;-0.200;2023-02-11T12:32:57;103564.00;;;9.76;71.57
35910;BME280;22004;49.120;-0.200;2023-02-11T12:35:55;103555.94;;;9.51;73.28
35910;BME280;22004;49.120;-0.200;2023-02-11T12:41:33;103551.56;;;9.10;74.91
35910;BME280;22004;49.120;-0.200;2023-02-11T12:49:57;103546.41;;;9.85;73.82
35910;BME280;22004;49.120;-0.200;2023-02-11T12:55:22;103535.97;;;9.93;66.95
35910;BME280;22004;49.120;-0.200;2023-02-11T12:57:51;103546.59;;;9.56;73.43
35910;BME280;22004;49.120;-0.200;2023-02-11T13:05:39;103533.25;;;9.29;77.31
35910;BME280;22004;49.120;-0.200;2023-02-11T13:08:16;103531.16;;;9.60;70.93
35910;BME280;22004;49.120;-0.200;2023-02-11T13:10:49;103521.81;;;9.91;73.07
35910;BME280;22004;49.120;-0.200;2023-02-11T13:13:34;103518.69;;;9.97;69.76
35910;BME280;22004;49.120;-0.200;2023-02-11T13:16:18;103516.22;;;10.07;66.39
35910;BME280;22004;49.120;-0.200;2023-02-11T13:19:20;103518.16;;;9.79;67.39
35910;BME280;22004;49.120;-0.200;2023-02-11T13:22:16;103520.44;;;9.60;70.10
35910;BME280;22004;49.120;-0.200;2023-02-11T13:27:56;103523.66;;;9.65;70.63
35910;BME280;22004;49.120;-0.200;2023-02-11T13:30:30;103521.72;;;9.67;70.67
35910;BME280;22004;49.120;-0.200;2023-02-11T13:37:52;103521.84;;;9.66;72.85
35910;BME280;22004;49.120;-0.200;2023-02-11T13:45:27;103522.59;;;9.55;75.85
35910;BME280;22004;49.120;-0.200;2023-02-11T13:47:58;103521.69;;;9.42;72.15
35910;BME280;22004;49.120;-0.200;2023-02-11T13:50:26;103517.47;;;10.14;66.31
35910;BME280;22004;49.120;-0.200;2023-02-11T13:53:00;103517.59;;;10.13;67.55
35910;BME280;22004;49.120;-0.200;2023-02-11T13:55:27;103516.31;;;10.18;65.80
35910;BME280;22004;49.120;-0.200;2023-02-11T14:11:51;103506.88;;;10.25;64.91
35910;BME280;22004;49.120;-0.200;2023-02-11T14:14:27;103497.66;;;9.91;67.78
35910;BME280;22004;49.120;-0.200;2023-02-11T14:19:35;103505.03;;;10.13;66.23
35910;BME280;22004;49.120;-0.200;2023-02-11T14:22:12;103499.00;;;10.22;66.15
35910;BME280;22004;49.120;-0.200;2023-02-11T14:25:01;103500.47;;;9.90;68.73
35910;BME280;22004;49.120;-0.200;2023-02-11T14:27:28;103507.44;;;10.05;67.46
35910;BME280;22004;49.120;-0.200;2023-02-11T14:41:25;103511.69;;;10.20;66.26
35910;BME280;22004;49.120;-0.200;2023-02-11T14:43:30;103500.72;;;10.36;64.64
35910;BME280;22004;49.120;-0.200;2023-02-11T14:46:00;103500.53;;;10.14;66.05
35910;BME280;22004;49.120;-0.200;2023-02-11T14:48:30;103506.09;;;10.23;64.77
35910;BME280;22004;49.120;-0.200;2023-02-11T14:51:06;103505.38;;;10.08;66.81
35910;BME280;22004;49.120;-0.200;2023-02-11T14:53:34;103501.28;;;10.03;69.43
35910;BME280;22004;49.120;-0.200;2023-02-11T14:56:01;103492.03;;;10.20;64.81
35910;BME280;22004;49.120;-0.200;2023-02-11T14:58:31;103498.00;;;9.87;70.39
35910;BME280;22004;49.120;-0.200;2023-02-11T15:01:03;103496.44;;;10.21;64.87
35910;BME280;22004;49.120;-0.200;2023-02-11T15:03:39;103495.94;;;10.03;66.07
35910;BME280;22004;49.120;-0.200;2023-02-11T15:06:24;103495.97;;;9.90;69.08
35910;BME280;22004;49.120;-0.200;2023-02-11T15:09:03;103501.94;;;9.94;67.56
35910;BME280;22004;49.120;-0.200;2023-02-11T15:11:32;103496.53;;;10.19;64.81
35910;BME280;22004;49.120;-0.200;2023-02-11T15:14:07;103493.03;;;10.06;68.38
35910;BME280;22004;49.120;-0.200;2023-02-11T15:16:33;103497.22;;;9.97;66.57
35910;BME280;22004;49.120;-0.200;2023-02-11T15:19:05;103497.69;;;9.66;69.59
35910;BME280;22004;49.120;-0.200;2023-02-11T15:21:33;103498.97;;;9.73;68.12
35910;BME280;22004;49.120;-0.200;2023-02-11T15:24:17;103496.97;;;10.13;66.85
35910;BME280;22004;49.120;-0.200;2023-02-11T15:26:44;103503.13;;;10.15;64.97
35910;BME280;22004;49.120;-0.200;2023-02-11T15:29:15;103506.13;;;9.98;66.54